AGGH/HIR METAR and TAF weather

Enter ICAO airport designator
Station Type Date Time Source
AGGH METAR 2018/07/21 22:00 UTC NOAA

AGGH 212200Z 09004KT 9999 FEW018 SCT100 BKN300 28/24 Q1012


Station Type Date Time Source
AGGH Decoded METAR 2018/07/21 22:00 UTC NOAA

Honiara / Henderson, Solomon Islands (AGGH) 09-25S 160-03E 9M
Jul 21, 2018 - 06:00 PM EDT / 2018.07.21 2200 UTC
Wind: from the E (090 degrees) at 5 MPH (4 KT):0
Visibility: greater than 7 mile(s):0
Sky conditions: mostly cloudy
Temperature: 82 F (28 C)
Dew Point: 75 F (24 C)
Relative Humidity: 78%
Pressure (altimeter): 29.88 in. Hg (1012 hPa)
ob: AGGH 212200Z 09004KT 9999 FEW018 SCT100 BKN300 28/24 Q1012
cycle: 22

Station Type Date Time Source
AGGH TAF 2018/07/21 18:42 UTC NOAA

TAF AGGH 211630Z 2118/2218 VRB03KT 9999 -SHDZ FEW016 SCT027 BKN100
FM212300 11010KT 9999 -SHDZ SCT019 SCT030 BKN100 PROB30 INTER 2118/2204 3000 SHDZ BKN018 SCT030 T 22 27 31 32 Q 1009 1011 1011 1009


Example: see airport list